sensor_id;sensor_type;location;lat;lon;timestamp;P1;durP1;ratioP1;P2;durP2;ratioP2
9310;SDS011;4694;52.464;13.480;2024-02-21T00:01:21;14.70;;;6.40;;
9310;SDS011;4694;52.464;13.480;2024-02-21T00:03:48;13.95;;;5.72;;
9310;SDS011;4694;52.464;13.480;2024-02-21T00:06:15;16.35;;;6.80;;
9310;SDS011;4694;52.464;13.480;2024-02-21T00:08:41;22.23;;;5.97;;
9310;SDS011;4694;52.464;13.480;2024-02-21T00:11:08;19.90;;;5.72;;
9310;SDS011;4694;52.464;13.480;2024-02-21T00:13:36;15.00;;;5.78;;
9310;SDS011;4694;52.464;13.480;2024-02-21T00:16:03;13.73;;;6.18;;
9310;SDS011;4694;52.464;13.480;2024-02-21T00:18:30;16.92;;;5.88;;
9310;SDS011;4694;52.464;13.480;2024-02-21T00:20:56;21.33;;;7.72;;
9310;SDS011;4694;52.464;13.480;2024-02-21T00:23:23;33.38;;;9.80;;
9310;SDS011;4694;52.464;13.480;2024-02-21T00:25:50;26.23;;;7.93;;
9310;SDS011;4694;52.464;13.480;2024-02-21T00:28:16;18.20;;;5.95;;
9310;SDS011;4694;52.464;13.480;2024-02-21T00:30:44;18.10;;;6.55;;
9310;SDS011;4694;52.464;13.480;2024-02-21T00:33:13;23.45;;;6.13;;
9310;SDS011;4694;52.464;13.480;2024-02-21T00:35:39;16.42;;;7.03;;
9310;SDS011;4694;52.464;13.480;2024-02-21T00:38:06;25.40;;;6.25;;
9310;SDS011;4694;52.464;13.480;2024-02-21T00:40:32;15.50;;;6.38;;
9310;SDS011;4694;52.464;13.480;2024-02-21T00:42:59;18.50;;;5.85;;
9310;SDS011;4694;52.464;13.480;2024-02-21T00:45:26;16.92;;;6.78;;
9310;SDS011;4694;52.464;13.480;2024-02-21T00:47:54;24.77;;;7.38;;
9310;SDS011;4694;52.464;13.480;2024-02-21T00:50:21;20.30;;;6.20;;
9310;SDS011;4694;52.464;13.480;2024-02-21T00:52:47;17.05;;;5.25;;
9310;SDS011;4694;52.464;13.480;2024-02-21T00:55:14;15.13;;;6.22;;
9310;SDS011;4694;52.464;13.480;2024-02-21T00:57:41;18.40;;;5.32;;
9310;SDS011;4694;52.464;13.480;2024-02-21T01:00:08;23.80;;;8.27;;
9310;SDS011;4694;52.464;13.480;2024-02-21T01:02:35;18.33;;;5.00;;
9310;SDS011;4694;52.464;13.480;2024-02-21T01:05:03;25.52;;;7.22;;
9310;SDS011;4694;52.464;13.480;2024-02-21T01:07:30;15.30;;;4.93;;
9310;SDS011;4694;52.464;13.480;2024-02-21T01:09:57;19.00;;;5.57;;
9310;SDS011;4694;52.464;13.480;2024-02-21T01:12:23;14.88;;;4.72;;
9310;SDS011;4694;52.464;13.480;2024-02-21T01:14:50;15.05;;;6.22;;
9310;SDS011;4694;52.464;13.480;2024-02-21T01:17:17;15.68;;;4.80;;
9310;SDS011;4694;52.464;13.480;2024-02-21T01:19:45;14.77;;;4.93;;
9310;SDS011;4694;52.464;13.480;2024-02-21T01:22:13;14.40;;;5.28;;
9310;SDS011;4694;52.464;13.480;2024-02-21T01:24:41;16.63;;;7.50;;
9310;SDS011;4694;52.464;13.480;2024-02-21T01:27:07;15.32;;;5.63;;
9310;SDS011;4694;52.464;13.480;2024-02-21T01:29:34;16.60;;;5.32;;
9310;SDS011;4694;52.464;13.480;2024-02-21T01:32:01;15.40;;;5.45;;
9310;SDS011;4694;52.464;13.480;2024-02-21T01:34:27;21.80;;;5.80;;
9310;SDS011;4694;52.464;13.480;2024-02-21T01:36:54;12.73;;;5.38;;
9310;SDS011;4694;52.464;13.480;2024-02-21T01:39:22;14.73;;;6.18;;
9310;SDS011;4694;52.464;13.480;2024-02-21T01:41:48;14.48;;;5.45;;
9310;SDS011;4694;52.464;13.480;2024-02-21T01:44:15;19.27;;;4.63;;
9310;SDS011;4694;52.464;13.480;2024-02-21T01:46:42;16.23;;;5.40;;
9310;SDS011;4694;52.464;13.480;2024-02-21T01:49:08;21.50;;;4.43;;
9310;SDS011;4694;52.464;13.480;2024-02-21T01:51:35;24.05;;;8.48;;
9310;SDS011;4694;52.464;13.480;2024-02-21T01:54:03;10.85;;;5.22;;
9310;SDS011;4694;52.464;13.480;2024-02-21T01:56:31;12.20;;;4.68;;
9310;SDS011;4694;52.464;13.480;2024-02-21T01:58:58;22.05;;;7.07;;
9310;SDS011;4694;52.464;13.480;2024-02-21T02:01:25;18.13;;;4.43;;
9310;SDS011;4694;52.464;13.480;2024-02-21T02:03:51;14.23;;;5.45;;
9310;SDS011;4694;52.464;13.480;2024-02-21T02:06:18;13.75;;;4.28;;
9310;SDS011;4694;52.464;13.480;2024-02-21T02:08:45;17.67;;;5.47;;
9310;SDS011;4694;52.464;13.480;2024-02-21T02:11:13;15.35;;;4.90;;
9310;SDS011;4694;52.464;13.480;2024-02-21T02:13:41;13.10;;;4.90;;
9310;SDS011;4694;52.464;13.480;2024-02-21T02:16:08;16.63;;;5.60;;
9310;SDS011;4694;52.464;13.480;2024-02-21T02:18:35;15.73;;;4.45;;
9310;SDS011;4694;52.464;13.480;2024-02-21T02:21:01;13.27;;;4.57;;
9310;SDS011;4694;52.464;13.480;2024-02-21T02:23:33;14.38;;;6.78;;
9310;SDS011;4694;52.464;13.480;2024-02-21T02:26:00;11.82;;;5.68;;
9310;SDS011;4694;52.464;13.480;2024-02-21T02:28:27;19.85;;;4.70;;
9310;SDS011;4694;52.464;13.480;2024-02-21T02:30:53;18.15;;;5.45;;
9310;SDS011;4694;52.464;13.480;2024-02-21T02:33:20;11.25;;;4.82;;
9310;SDS011;4694;52.464;13.480;2024-02-21T02:39:01;11.50;;;4.55;;
9310;SDS011;4694;52.464;13.480;2024-02-21T02:41:28;21.42;;;5.45;;
9310;SDS011;4694;52.464;13.480;2024-02-21T02:43:54;13.13;;;5.35;;
9310;SDS011;4694;52.464;13.480;2024-02-21T02:46:21;13.10;;;5.55;;
9310;SDS011;4694;52.464;13.480;2024-02-21T02:48:47;16.67;;;5.13;;
9310;SDS011;4694;52.464;13.480;2024-02-21T02:51:14;18.15;;;5.18;;
9310;SDS011;4694;52.464;13.480;2024-02-21T02:53:41;17.00;;;4.90;;
9310;SDS011;4694;52.464;13.480;2024-02-21T02:56:09;11.55;;;4.63;;
9310;SDS011;4694;52.464;13.480;2024-02-21T02:58:40;19.08;;;6.78;;
9310;SDS011;4694;52.464;13.480;2024-02-21T03:01:07;16.02;;;6.20;;
9310;SDS011;4694;52.464;13.480;2024-02-21T03:03:33;14.73;;;5.30;;
9310;SDS011;4694;52.464;13.480;2024-02-21T03:06:00;18.05;;;8.23;;
9310;SDS011;4694;52.464;13.480;2024-02-21T03:08:26;16.13;;;6.55;;
9310;SDS011;4694;52.464;13.480;2024-02-21T03:10:53;17.45;;;5.88;;
9310;SDS011;4694;52.464;13.480;2024-02-21T03:13:21;25.38;;;7.85;;
9310;SDS011;4694;52.464;13.480;2024-02-21T03:15:48;19.15;;;6.35;;
9310;SDS011;4694;52.464;13.480;2024-02-21T03:18:14;13.80;;;6.80;;
9310;SDS011;4694;52.464;13.480;2024-02-21T03:20:41;19.98;;;6.07;;
9310;SDS011;4694;52.464;13.480;2024-02-21T03:23:08;19.67;;;6.15;;
9310;SDS011;4694;52.464;13.480;2024-02-21T03:25:34;11.52;;;5.93;;
9310;SDS011;4694;52.464;13.480;2024-02-21T03:28:01;20.20;;;8.30;;
9310;SDS011;4694;52.464;13.480;2024-02-21T03:30:29;17.48;;;7.75;;
9310;SDS011;4694;52.464;13.480;2024-02-21T03:32:56;16.30;;;7.05;;
9310;SDS011;4694;52.464;13.480;2024-02-21T03:35:23;18.08;;;7.13;;
9310;SDS011;4694;52.464;13.480;2024-02-21T03:37:51;20.95;;;7.05;;
9310;SDS011;4694;52.464;13.480;2024-02-21T03:40:18;20.02;;;5.78;;
9310;SDS011;4694;52.464;13.480;2024-02-21T03:42:44;12.52;;;6.15;;
9310;SDS011;4694;52.464;13.480;2024-02-21T03:45:11;18.35;;;6.45;;
9310;SDS011;4694;52.464;13.480;2024-02-21T03:47:39;24.65;;;7.20;;
9310;SDS011;4694;52.464;13.480;2024-02-21T03:50:06;17.60;;;5.95;;
9310;SDS011;4694;52.464;13.480;2024-02-21T03:52:33;21.55;;;6.22;;
9310;SDS011;4694;52.464;13.480;2024-02-21T03:55:00;22.55;;;9.85;;
9310;SDS011;4694;52.464;13.480;2024-02-21T03:57:26;18.42;;;6.63;;
9310;SDS011;4694;52.464;13.480;2024-02-21T03:59:53;27.15;;;7.82;;
9310;SDS011;4694;52.464;13.480;2024-02-21T04:02:20;13.05;;;5.95;;
9310;SDS011;4694;52.464;13.480;2024-02-21T04:04:48;16.52;;;6.18;;
9310;SDS011;4694;52.464;13.480;2024-02-21T04:07:14;21.02;;;7.47;;
9310;SDS011;4694;52.464;13.480;2024-02-21T04:09:41;14.15;;;6.97;;
9310;SDS011;4694;52.464;13.480;2024-02-21T04:12:08;21.38;;;7.30;;
9310;SDS011;4694;52.464;13.480;2024-02-21T04:14:35;19.48;;;6.20;;
9310;SDS011;4694;52.464;13.480;2024-02-21T04:17:02;18.75;;;6.95;;
9310;SDS011;4694;52.464;13.480;2024-02-21T04:19:30;21.27;;;8.35;;
9310;SDS011;4694;52.464;13.480;2024-02-21T04:21:58;23.55;;;7.28;;
9310;SDS011;4694;52.464;13.480;2024-02-21T04:24:24;16.80;;;7.63;;
9310;SDS011;4694;52.464;13.480;2024-02-21T04:26:51;23.20;;;7.30;;
9310;SDS011;4694;52.464;13.480;2024-02-21T04:29:18;22.58;;;8.05;;
9310;SDS011;4694;52.464;13.480;2024-02-21T04:31:44;19.90;;;10.35;;
9310;SDS011;4694;52.464;13.480;2024-02-21T04:34:11;23.15;;;7.43;;
9310;SDS011;4694;52.464;13.480;2024-02-21T04:36:37;21.45;;;6.68;;
9310;SDS011;4694;52.464;13.480;2024-02-21T04:39:05;17.73;;;6.68;;
9310;SDS011;4694;52.464;13.480;2024-02-21T04:41:32;18.27;;;6.88;;
9310;SDS011;4694;52.464;13.480;2024-02-21T04:43:59;21.67;;;7.68;;
9310;SDS011;4694;52.464;13.480;2024-02-21T04:46:25;19.33;;;8.00;;
9310;SDS011;4694;52.464;13.480;2024-02-21T04:48:52;18.17;;;7.63;;
9310;SDS011;4694;52.464;13.480;2024-02-21T04:51:18;20.67;;;6.68;;
9310;SDS011;4694;52.464;13.480;2024-02-21T04:53:45;21.35;;;7.43;;
9310;SDS011;4694;52.464;13.480;2024-02-21T04:56:13;17.42;;;6.20;;
9310;SDS011;4694;52.464;13.480;2024-02-21T04:58:40;20.80;;;7.22;;
9310;SDS011;4694;52.464;13.480;2024-02-21T05:01:06;18.05;;;6.57;;
9310;SDS011;4694;52.464;13.480;2024-02-21T05:03:33;23.10;;;8.23;;
9310;SDS011;4694;52.464;13.480;2024-02-21T05:06:00;19.20;;;8.05;;
9310;SDS011;4694;52.464;13.480;2024-02-21T05:08:27;19.48;;;7.47;;
9310;SDS011;4694;52.464;13.480;2024-02-21T05:10:53;30.33;;;8.38;;
9310;SDS011;4694;52.464;13.480;2024-02-21T05:13:21;21.17;;;6.72;;
9310;SDS011;4694;52.464;13.480;2024-02-21T05:15:48;20.55;;;7.15;;
9310;SDS011;4694;52.464;13.480;2024-02-21T05:18:14;21.58;;;7.55;;
9310;SDS011;4694;52.464;13.480;2024-02-21T05:20:41;20.15;;;7.93;;
9310;SDS011;4694;52.464;13.480;2024-02-21T05:23:08;17.33;;;8.60;;
9310;SDS011;4694;52.464;13.480;2024-02-21T05:25:34;19.50;;;7.30;;
9310;SDS011;4694;52.464;13.480;2024-02-21T05:28:01;20.00;;;8.70;;
9310;SDS011;4694;52.464;13.480;2024-02-21T05:30:29;22.88;;;9.20;;
9310;SDS011;4694;52.464;13.480;2024-02-21T05:32:56;22.55;;;7.85;;
9310;SDS011;4694;52.464;13.480;2024-02-21T05:35:25;21.48;;;7.22;;
9310;SDS011;4694;52.464;13.480;2024-02-21T05:37:52;26.50;;;9.17;;
9310;SDS011;4694;52.464;13.480;2024-02-21T05:40:19;31.73;;;8.95;;
9310;SDS011;4694;52.464;13.480;2024-02-21T05:42:45;22.73;;;7.47;;
9310;SDS011;4694;52.464;13.480;2024-02-21T05:45:12;29.48;;;9.00;;
9310;SDS011;4694;52.464;13.480;2024-02-21T05:47:41;23.52;;;8.65;;
9310;SDS011;4694;52.464;13.480;2024-02-21T05:50:08;22.02;;;8.15;;
9310;SDS011;4694;52.464;13.480;2024-02-21T05:52:36;26.50;;;9.45;;
9310;SDS011;4694;52.464;13.480;2024-02-21T05:55:03;16.98;;;7.25;;
9310;SDS011;4694;52.464;13.480;2024-02-21T05:57:30;18.08;;;7.55;;
9310;SDS011;4694;52.464;13.480;2024-02-21T05:59:56;17.38;;;7.32;;
9310;SDS011;4694;52.464;13.480;2024-02-21T06:02:23;18.80;;;6.72;;
9310;SDS011;4694;52.464;13.480;2024-02-21T06:04:51;21.73;;;8.43;;
9310;SDS011;4694;52.464;13.480;2024-02-21T06:07:17;23.00;;;8.13;;
9310;SDS011;4694;52.464;13.480;2024-02-21T06:09:44;20.98;;;8.10;;
9310;SDS011;4694;52.464;13.480;2024-02-21T06:12:10;20.42;;;7.95;;
9310;SDS011;4694;52.464;13.480;2024-02-21T06:14:37;22.88;;;8.93;;
9310;SDS011;4694;52.464;13.480;2024-02-21T06:17:04;18.00;;;7.53;;
9310;SDS011;4694;52.464;13.480;2024-02-21T06:19:30;21.52;;;8.68;;
9310;SDS011;4694;52.464;13.480;2024-02-21T06:21:58;24.00;;;7.93;;
9310;SDS011;4694;52.464;13.480;2024-02-21T06:24:25;18.85;;;8.57;;
9310;SDS011;4694;52.464;13.480;2024-02-21T06:26:51;30.00;;;8.85;;
9310;SDS011;4694;52.464;13.480;2024-02-21T06:29:18;14.90;;;7.43;;
9310;SDS011;4694;52.464;13.480;2024-02-21T06:31:44;25.95;;;9.38;;
9310;SDS011;4694;52.464;13.480;2024-02-21T06:34:11;17.98;;;7.90;;
9310;SDS011;4694;52.464;13.480;2024-02-21T06:36:38;25.88;;;9.57;;
9310;SDS011;4694;52.464;13.480;2024-02-21T06:39:06;17.75;;;6.60;;
9310;SDS011;4694;52.464;13.480;2024-02-21T06:41:33;16.73;;;7.05;;
9310;SDS011;4694;52.464;13.480;2024-02-21T06:43:59;14.10;;;6.30;;
9310;SDS011;4694;52.464;13.480;2024-02-21T06:46:26;13.43;;;7.65;;
9310;SDS011;4694;52.464;13.480;2024-02-21T06:48:54;16.52;;;7.38;;
9310;SDS011;4694;52.464;13.480;2024-02-21T06:51:22;17.02;;;6.93;;
9310;SDS011;4694;52.464;13.480;2024-02-21T06:53:49;14.93;;;6.88;;
9310;SDS011;4694;52.464;13.480;2024-02-21T06:56:17;23.30;;;7.03;;
9310;SDS011;4694;52.464;13.480;2024-02-21T06:58:44;15.23;;;7.78;;
9310;SDS011;4694;52.464;13.480;2024-02-21T07:01:11;17.02;;;6.78;;
9310;SDS011;4694;52.464;13.480;2024-02-21T07:03:37;21.77;;;9.98;;
9310;SDS011;4694;52.464;13.480;2024-02-21T07:06:04;20.38;;;7.65;;
9310;SDS011;4694;52.464;13.480;2024-02-21T07:08:31;20.60;;;9.45;;
9310;SDS011;4694;52.464;13.480;2024-02-21T07:10:57;17.48;;;8.02;;
9310;SDS011;4694;52.464;13.480;2024-02-21T07:13:25;21.27;;;7.95;;
9310;SDS011;4694;52.464;13.480;2024-02-21T07:15:54;15.50;;;6.97;;
9310;SDS011;4694;52.464;13.480;2024-02-21T07:18:21;22.52;;;7.32;;
9310;SDS011;4694;52.464;13.480;2024-02-21T07:20:47;19.75;;;7.28;;
9310;SDS011;4694;52.464;13.480;2024-02-21T07:23:14;19.77;;;7.30;;
9310;SDS011;4694;52.464;13.480;2024-02-21T07:25:41;20.95;;;10.20;;
9310;SDS011;4694;52.464;13.480;2024-02-21T07:28:07;17.08;;;6.82;;
9310;SDS011;4694;52.464;13.480;2024-02-21T07:30:35;15.57;;;6.75;;
9310;SDS011;4694;52.464;13.480;2024-02-21T07:33:02;17.13;;;7.47;;
9310;SDS011;4694;52.464;13.480;2024-02-21T07:35:29;13.23;;;6.07;;
9310;SDS011;4694;52.464;13.480;2024-02-21T07:37:55;17.15;;;7.00;;
9310;SDS011;4694;52.464;13.480;2024-02-21T07:40:22;21.08;;;8.63;;
9310;SDS011;4694;52.464;13.480;2024-02-21T07:42:49;18.27;;;7.28;;
9310;SDS011;4694;52.464;13.480;2024-02-21T07:45:15;16.38;;;5.72;;
9310;SDS011;4694;52.464;13.480;2024-02-21T07:47:44;17.05;;;6.55;;
9310;SDS011;4694;52.464;13.480;2024-02-21T07:50:11;12.07;;;6.40;;
9310;SDS011;4694;52.464;13.480;2024-02-21T07:52:38;19.00;;;6.15;;
9310;SDS011;4694;52.464;13.480;2024-02-21T07:55:04;13.75;;;5.53;;
9310;SDS011;4694;52.464;13.480;2024-02-21T07:57:31;20.73;;;7.45;;
9310;SDS011;4694;52.464;13.480;2024-02-21T07:59:58;11.20;;;6.10;;
9310;SDS011;4694;52.464;13.480;2024-02-21T08:02:24;16.55;;;5.85;;
9310;SDS011;4694;52.464;13.480;2024-02-21T08:04:52;18.70;;;6.40;;
9310;SDS011;4694;52.464;13.480;2024-02-21T08:07:19;17.33;;;6.70;;
9310;SDS011;4694;52.464;13.480;2024-02-21T08:09:46;19.73;;;7.50;;
9310;SDS011;4694;52.464;13.480;2024-02-21T08:12:12;17.67;;;6.85;;
9310;SDS011;4694;52.464;13.480;2024-02-21T08:14:39;15.23;;;5.97;;
9310;SDS011;4694;52.464;13.480;2024-02-21T08:17:05;22.63;;;7.40;;
9310;SDS011;4694;52.464;13.480;2024-02-21T08:19:32;21.25;;;7.25;;
9310;SDS011;4694;52.464;13.480;2024-02-21T08:22:00;13.88;;;6.35;;
9310;SDS011;4694;52.464;13.480;2024-02-21T08:24:28;14.82;;;5.50;;
9310;SDS011;4694;52.464;13.480;2024-02-21T08:26:55;14.50;;;5.93;;
9310;SDS011;4694;52.464;13.480;2024-02-21T08:29:21;17.45;;;6.97;;
9310;SDS011;4694;52.464;13.480;2024-02-21T08:31:48;16.10;;;6.28;;
9310;SDS011;4694;52.464;13.480;2024-02-21T08:34:15;14.95;;;7.32;;
9310;SDS011;4694;52.464;13.480;2024-02-21T08:36:42;22.17;;;9.00;;
9310;SDS011;4694;52.464;13.480;2024-02-21T08:39:10;23.65;;;15.48;;
9310;SDS011;4694;52.464;13.480;2024-02-21T08:41:40;19.02;;;7.72;;
9310;SDS011;4694;52.464;13.480;2024-02-21T08:44:06;14.55;;;6.80;;
9310;SDS011;4694;52.464;13.480;2024-02-21T08:46:33;17.38;;;6.72;;
9310;SDS011;4694;52.464;13.480;2024-02-21T08:49:00;19.63;;;8.48;;
9310;SDS011;4694;52.464;13.480;2024-02-21T08:51:26;17.58;;;7.28;;
9310;SDS011;4694;52.464;13.480;2024-02-21T08:53:53;16.25;;;6.97;;
9310;SDS011;4694;52.464;13.480;2024-02-21T08:56:21;15.75;;;7.20;;
9310;SDS011;4694;52.464;13.480;2024-02-21T08:58:48;13.73;;;7.30;;
9310;SDS011;4694;52.464;13.480;2024-02-21T09:01:15;23.38;;;7.80;;
9310;SDS011;4694;52.464;13.480;2024-02-21T09:03:41;14.65;;;8.68;;
9310;SDS011;4694;52.464;13.480;2024-02-21T09:06:10;16.27;;;7.18;;
9310;SDS011;4694;52.464;13.480;2024-02-21T09:08:39;18.10;;;8.85;;
9310;SDS011;4694;52.464;13.480;2024-02-21T09:11:06;24.70;;;8.57;;
9310;SDS011;4694;52.464;13.480;2024-02-21T09:13:34;19.45;;;7.95;;
9310;SDS011;4694;52.464;13.480;2024-02-21T09:16:00;20.40;;;7.50;;
9310;SDS011;4694;52.464;13.480;2024-02-21T09:18:27;20.88;;;8.73;;
9310;SDS011;4694;52.464;13.480;2024-02-21T09:20:54;20.05;;;8.10;;
9310;SDS011;4694;52.464;13.480;2024-02-21T09:23:20;19.52;;;7.88;;
9310;SDS011;4694;52.464;13.480;2024-02-21T09:25:50;22.30;;;7.43;;
9310;SDS011;4694;52.464;13.480;2024-02-21T09:28:16;17.33;;;8.23;;
9310;SDS011;4694;52.464;13.480;2024-02-21T09:30:44;15.93;;;8.35;;
9310;SDS011;4694;52.464;13.480;2024-02-21T09:33:11;19.17;;;7.20;;
9310;SDS011;4694;52.464;13.480;2024-02-21T09:35:38;16.67;;;6.93;;
9310;SDS011;4694;52.464;13.480;2024-02-21T09:38:05;18.60;;;7.40;;
9310;SDS011;4694;52.464;13.480;2024-02-21T09:40:32;20.98;;;8.93;;
9310;SDS011;4694;52.464;13.480;2024-02-21T09:43:03;21.40;;;7.95;;
9310;SDS011;4694;52.464;13.480;2024-02-21T09:45:32;15.68;;;8.07;;
9310;SDS011;4694;52.464;13.480;2024-02-21T09:48:09;21.38;;;9.27;;
9310;SDS011;4694;52.464;13.480;2024-02-21T09:50:49;18.77;;;9.00;;
9310;SDS011;4694;52.464;13.480;2024-02-21T09:53:18;22.08;;;8.70;;
9310;SDS011;4694;52.464;13.480;2024-02-21T09:55:46;18.48;;;8.23;;
9310;SDS011;4694;52.464;13.480;2024-02-21T09:58:14;13.80;;;7.90;;
9310;SDS011;4694;52.464;13.480;2024-02-21T10:00:41;23.33;;;10.35;;
9310;SDS011;4694;52.464;13.480;2024-02-21T10:03:09;20.58;;;9.52;;
9310;SDS011;4694;52.464;13.480;2024-02-21T10:05:36;22.40;;;7.90;;
9310;SDS011;4694;52.464;13.480;2024-02-21T10:08:04;16.67;;;8.50;;
9310;SDS011;4694;52.464;13.480;2024-02-21T10:10:40;19.30;;;9.20;;
9310;SDS011;4694;52.464;13.480;2024-02-21T10:13:09;19.67;;;8.68;;
9310;SDS011;4694;52.464;13.480;2024-02-21T10:15:35;19.42;;;8.13;;
9310;SDS011;4694;52.464;13.480;2024-02-21T10:18:02;17.63;;;8.73;;
9310;SDS011;4694;52.464;13.480;2024-02-21T10:20:31;17.05;;;8.20;;
9310;SDS011;4694;52.464;13.480;2024-02-21T10:23:01;18.23;;;8.23;;
9310;SDS011;4694;52.464;13.480;2024-02-21T10:25:28;15.95;;;8.80;;
9310;SDS011;4694;52.464;13.480;2024-02-21T10:27:55;18.25;;;8.95;;
9310;SDS011;4694;52.464;13.480;2024-02-21T10:30:22;15.95;;;7.20;;
9310;SDS011;4694;52.464;13.480;2024-02-21T10:32:49;19.65;;;8.55;;
9310;SDS011;4694;52.464;13.480;2024-02-21T10:35:25;16.35;;;8.20;;
9310;SDS011;4694;52.464;13.480;2024-02-21T10:37:54;17.42;;;8.35;;
9310;SDS011;4694;52.464;13.480;2024-02-21T10:40:22;20.05;;;8.25;;
9310;SDS011;4694;52.464;13.480;2024-02-21T10:42:50;20.13;;;8.15;;
9310;SDS011;4694;52.464;13.480;2024-02-21T10:45:24;14.23;;;7.47;;
9310;SDS011;4694;52.464;13.480;2024-02-21T10:47:56;13.65;;;6.55;;
9310;SDS011;4694;52.464;13.480;2024-02-21T10:50:32;18.33;;;8.73;;
9310;SDS011;4694;52.464;13.480;2024-02-21T10:53:17;17.85;;;7.28;;
9310;SDS011;4694;52.464;13.480;2024-02-21T10:55:56;16.30;;;7.55;;
9310;SDS011;4694;52.464;13.480;2024-02-21T10:58:27;24.83;;;8.30;;
9310;SDS011;4694;52.464;13.480;2024-02-21T11:00:56;18.83;;;7.63;;
9310;SDS011;4694;52.464;13.480;2024-02-21T11:03:23;15.18;;;8.15;;
9310;SDS011;4694;52.464;13.480;2024-02-21T11:05:50;17.48;;;8.40;;
9310;SDS011;4694;52.464;13.480;2024-02-21T11:08:19;16.20;;;6.93;;
9310;SDS011;4694;52.464;13.480;2024-02-21T11:10:46;15.45;;;6.88;;
9310;SDS011;4694;52.464;13.480;2024-02-21T11:13:12;18.80;;;6.47;;
9310;SDS011;4694;52.464;13.480;2024-02-21T11:15:39;15.70;;;8.63;;
9310;SDS011;4694;52.464;13.480;2024-02-21T11:18:06;14.80;;;8.60;;
9310;SDS011;4694;52.464;13.480;2024-02-21T11:20:32;15.55;;;7.05;;
9310;SDS011;4694;52.464;13.480;2024-02-21T11:23:00;17.33;;;7.82;;
9310;SDS011;4694;52.464;13.480;2024-02-21T11:25:28;13.32;;;8.57;;
9310;SDS011;4694;52.464;13.480;2024-02-21T11:28:00;14.68;;;7.63;;
9310;SDS011;4694;52.464;13.480;2024-02-21T11:33:05;25.25;;;8.40;;
9310;SDS011;4694;52.464;13.480;2024-02-21T11:35:33;13.18;;;7.13;;
9310;SDS011;4694;52.464;13.480;2024-02-21T11:38:09;11.23;;;6.20;;
9310;SDS011;4694;52.464;13.480;2024-02-21T11:40:41;12.52;;;7.35;;
9310;SDS011;4694;52.464;13.480;2024-02-21T11:43:10;10.95;;;5.85;;
9310;SDS011;4694;52.464;13.480;2024-02-21T11:45:37;13.65;;;6.75;;
9310;SDS011;4694;52.464;13.480;2024-02-21T11:48:05;10.30;;;5.78;;
9310;SDS011;4694;52.464;13.480;2024-02-21T11:50:32;9.95;;;5.05;;
9310;SDS011;4694;52.464;13.480;2024-02-21T11:53:00;9.40;;;4.97;;
9310;SDS011;4694;52.464;13.480;2024-02-21T11:55:26;7.18;;;4.60;;
9310;SDS011;4694;52.464;13.480;2024-02-21T11:57:55;12.40;;;5.25;;
9310;SDS011;4694;52.464;13.480;2024-02-21T12:00:22;11.93;;;5.03;;
9310;SDS011;4694;52.464;13.480;2024-02-21T12:02:50;6.97;;;4.38;;
9310;SDS011;4694;52.464;13.480;2024-02-21T12:05:18;7.68;;;5.07;;
9310;SDS011;4694;52.464;13.480;2024-02-21T12:07:45;7.90;;;5.00;;
9310;SDS011;4694;52.464;13.480;2024-02-21T12:10:12;6.07;;;4.25;;
9310;SDS011;4694;52.464;13.480;2024-02-21T12:12:39;6.88;;;4.00;;
9310;SDS011;4694;52.464;13.480;2024-02-21T12:15:08;7.95;;;4.20;;
9310;SDS011;4694;52.464;13.480;2024-02-21T12:17:34;5.47;;;3.42;;
9310;SDS011;4694;52.464;13.480;2024-02-21T12:20:01;6.60;;;3.70;;
9310;SDS011;4694;52.464;13.480;2024-02-21T12:22:30;9.23;;;4.43;;
9310;SDS011;4694;52.464;13.480;2024-02-21T12:24:58;6.68;;;3.85;;
9310;SDS011;4694;52.464;13.480;2024-02-21T12:27:24;6.68;;;3.83;;
9310;SDS011;4694;52.464;13.480;2024-02-21T12:29:51;5.35;;;2.75;;
9310;SDS011;4694;52.464;13.480;2024-02-21T12:32:19;5.45;;;4.13;;
9310;SDS011;4694;52.464;13.480;2024-02-21T12:34:46;6.03;;;3.15;;
9310;SDS011;4694;52.464;13.480;2024-02-21T12:37:13;7.00;;;4.63;;
9310;SDS011;4694;52.464;13.480;2024-02-21T12:39:40;4.22;;;2.92;;
9310;SDS011;4694;52.464;13.480;2024-02-21T12:42:07;7.63;;;3.30;;
9310;SDS011;4694;52.464;13.480;2024-02-21T12:44:36;8.32;;;4.10;;
9310;SDS011;4694;52.464;13.480;2024-02-21T12:47:03;4.88;;;3.40;;
9310;SDS011;4694;52.464;13.480;2024-02-21T12:49:31;11.00;;;4.05;;
9310;SDS011;4694;52.464;13.480;2024-02-21T12:51:57;7.00;;;3.13;;
9310;SDS011;4694;52.464;13.480;2024-02-21T12:54:24;6.78;;;3.80;;
9310;SDS011;4694;52.464;13.480;2024-02-21T12:56:51;12.15;;;3.40;;
9310;SDS011;4694;52.464;13.480;2024-02-21T12:59:17;9.68;;;3.80;;
9310;SDS011;4694;52.464;13.480;2024-02-21T13:01:44;5.78;;;2.67;;
9310;SDS011;4694;52.464;13.480;2024-02-21T13:04:11;6.35;;;3.60;;
9310;SDS011;4694;52.464;13.480;2024-02-21T13:06:39;5.28;;;3.55;;
9310;SDS011;4694;52.464;13.480;2024-02-21T13:09:05;9.18;;;4.63;;
9310;SDS011;4694;52.464;13.480;2024-02-21T13:11:35;11.43;;;4.50;;
9310;SDS011;4694;52.464;13.480;2024-02-21T13:14:02;13.48;;;4.80;;
9310;SDS011;4694;52.464;13.480;2024-02-21T13:16:29;8.90;;;4.30;;
9310;SDS011;4694;52.464;13.480;2024-02-21T13:18:56;5.72;;;3.17;;
9310;SDS011;4694;52.464;13.480;2024-02-21T13:21:22;6.75;;;3.95;;
9310;SDS011;4694;52.464;13.480;2024-02-21T13:23:51;8.95;;;3.78;;
9310;SDS011;4694;52.464;13.480;2024-02-21T13:26:17;10.70;;;4.15;;
9310;SDS011;4694;52.464;13.480;2024-02-21T13:28:45;4.70;;;3.70;;
9310;SDS011;4694;52.464;13.480;2024-02-21T13:31:13;6.50;;;3.22;;
9310;SDS011;4694;52.464;13.480;2024-02-21T13:33:41;6.53;;;4.18;;
9310;SDS011;4694;52.464;13.480;2024-02-21T13:36:09;10.60;;;3.60;;
9310;SDS011;4694;52.464;13.480;2024-02-21T13:38:36;8.00;;;4.15;;
9310;SDS011;4694;52.464;13.480;2024-02-21T13:41:05;15.30;;;4.95;;
9310;SDS011;4694;52.464;13.480;2024-02-21T13:43:32;16.95;;;6.60;;
9310;SDS011;4694;52.464;13.480;2024-02-21T13:45:59;11.02;;;4.28;;
9310;SDS011;4694;52.464;13.480;2024-02-21T13:48:27;11.43;;;4.38;;
9310;SDS011;4694;52.464;13.480;2024-02-21T13:50:55;9.40;;;4.28;;
9310;SDS011;4694;52.464;13.480;2024-02-21T13:53:21;9.85;;;3.55;;
9310;SDS011;4694;52.464;13.480;2024-02-21T13:55:48;12.60;;;6.35;;
9310;SDS011;4694;52.464;13.480;2024-02-21T13:58:16;11.70;;;4.22;;
9310;SDS011;4694;52.464;13.480;2024-02-21T14:00:43;10.25;;;3.33;;
9310;SDS011;4694;52.464;13.480;2024-02-21T14:03:10;12.45;;;5.55;;
9310;SDS011;4694;52.464;13.480;2024-02-21T14:05:36;12.02;;;4.50;;
9310;SDS011;4694;52.464;13.480;2024-02-21T14:08:04;10.63;;;4.25;;
9310;SDS011;4694;52.464;13.480;2024-02-21T14:10:32;7.22;;;3.85;;
9310;SDS011;4694;52.464;13.480;2024-02-21T14:12:58;12.55;;;3.60;;
9310;SDS011;4694;52.464;13.480;2024-02-21T14:15:26;7.13;;;3.13;;
9310;SDS011;4694;52.464;13.480;2024-02-21T14:17:53;8.57;;;3.40;;
9310;SDS011;4694;52.464;13.480;2024-02-21T14:20:21;5.63;;;3.13;;
9310;SDS011;4694;52.464;13.480;2024-02-21T14:22:47;10.30;;;4.22;;
9310;SDS011;4694;52.464;13.480;2024-02-21T14:25:14;9.30;;;3.75;;
9310;SDS011;4694;52.464;13.480;2024-02-21T14:27:41;10.88;;;3.88;;
9310;SDS011;4694;52.464;13.480;2024-02-21T14:30:09;5.80;;;2.42;;
9310;SDS011;4694;52.464;13.480;2024-02-21T14:32:37;7.40;;;4.40;;
9310;SDS011;4694;52.464;13.480;2024-02-21T14:35:04;10.82;;;3.88;;
9310;SDS011;4694;52.464;13.480;2024-02-21T14:37:31;7.97;;;3.42;;
9310;SDS011;4694;52.464;13.480;2024-02-21T14:39:58;7.38;;;3.22;;
9310;SDS011;4694;52.464;13.480;2024-02-21T14:42:25;7.63;;;3.45;;
9310;SDS011;4694;52.464;13.480;2024-02-21T14:44:52;6.35;;;3.08;;
9310;SDS011;4694;52.464;13.480;2024-02-21T14:47:18;8.48;;;3.03;;
9310;SDS011;4694;52.464;13.480;2024-02-21T14:49:46;10.25;;;3.78;;
9310;SDS011;4694;52.464;13.480;2024-02-21T14:52:13;8.88;;;3.65;;
9310;SDS011;4694;52.464;13.480;2024-02-21T14:54:42;7.68;;;3.42;;
9310;SDS011;4694;52.464;13.480;2024-02-21T14:57:13;9.98;;;3.33;;